Hovedside
METAR-TAF:

METAR-TAF

Lufthavner :

Redmond Municipal Airport (Roberts Field)

Redmond, Oregon, USA

breddegrad: 44-15-15N, lengdegrad: 121-08-59W, høyde over havet: 938 m

Gjeldene værobservasjon

Denne rapporten ble laget for 1 time og 9 minutter siden, klokken 07:56 UTC
Vind 4 kt fra Sør
Temperatur -7°C
Luftfuktighet 86%
Trykk 1025 hPa
Sikt: 16.1 km
Skyfri himmel

METAR: KRDM 180756Z AUTO 17004KT 10SM CLR M07/M09 A3026 RMK AO2 SLP266 T10721089 401001072

Tid: 01:05 (09:05 UTC)

Varsel

Denne rapporten ble laget for 3 timer og 45 minutter siden, klokken 05:20 UTC
Varsel gyldig fra 18. klokken 06 UTC til 19. klokken 06 UTC
Vind 3 kt fra skiftende retning
Sikt: 10 km
Skyfri himmel
Fra 18. klokken 1100 UTC
Vind 3 kt fra skiftende retning
Sikt: 8.0 km
Skyfri himmel
dis
Fra 18. klokken 1900 UTC
Vind 4 kt fra Nord-nordvest
Sikt: 10 km
Skyfri himmel

TAF: KRDM 180520Z 1806/1906 VRB03KT P6SM SKC FM181100 VRB03KT 5SM BR SKC FM181900 34004KT P6SM SKC

Værobservasjoner og værvarsel for over 4000 flyplasser (METAR- og TAF-rapporter).

Tilgjengelige stasjoner er representert av de røde og gule prikkene på kartet.

Hold musepekeren over prikken for å se navnet på stasjonen.

Klikk så for å se værobservasjoner og -varsler.

For å forandre kartet kan du klikke på den grønne knappen med svart kryss for å zoome inn, på den grønne knappen med strek for å zoome ut, eller på de grønne pilene for å se tilstøtende kart.


METAR-TAF: